LJB weather

Elborrego Airport
La Loma, César Department, Colombia

Public forecast

Using degrees Celsius for public forecast. Weather courtesy of forecast.io.

METAR (pilot weather report)

Closest report is Alfonso López Pumarejo Airport, 52.3 nm (96.9 km) NNE. Retrieved 2019/03/27 02:00 UTC (26 minutes ago):

SKVP 270200Z 07010KT 8000 FEW015 BKN200 30/18 A2985 RMK HZ

TAF (pilot weather forecast)

Forecast is more than 12 hours old.

Closest forecast is Ernesto Cortissoz International Airport, 110.6 nm (204.9 km) NW. Retrieved 2019/03/24 18:34 UTC (2 days ago):

TAF SKBQ 241700Z 2418/2518 03014KT 9999 FEW020 TEMPO 2410/2412 4000 BR SCT010 TX33/2417Z TN25/2510Z